sensor_id;sensor_type;location;lat;lon;timestamp;pressure;altitude;pressure_sealevel;temperature;humidity
54920;BME280;63804;53.120;8.764;2022-09-30T00:02:35;100762.66;;;12.28;51.61
54920;BME280;63804;53.120;8.764;2022-09-30T00:05:20;100764.59;;;12.11;52.01
54920;BME280;63804;53.120;8.764;2022-09-30T00:08:04;100766.00;;;12.05;51.96
54920;BME280;63804;53.120;8.764;2022-09-30T00:10:29;100765.13;;;12.01;51.75
54920;BME280;63804;53.120;8.764;2022-09-30T00:12:55;100761.22;;;12.02;52.12
54920;BME280;63804;53.120;8.764;2022-09-30T00:15:22;100766.69;;;12.02;51.93
54920;BME280;63804;53.120;8.764;2022-09-30T00:17:48;100764.41;;;12.04;51.92
54920;BME280;63804;53.120;8.764;2022-09-30T00:20:13;100764.91;;;11.94;52.46
54920;BME280;63804;53.120;8.764;2022-09-30T00:22:39;100774.72;;;11.95;52.23
54920;BME280;63804;53.120;8.764;2022-09-30T00:25:05;100774.03;;;11.98;52.32
54920;BME280;63804;53.120;8.764;2022-09-30T00:27:30;100775.59;;;11.99;52.09
54920;BME280;63804;53.120;8.764;2022-09-30T00:29:56;100768.38;;;11.91;52.24
54920;BME280;63804;53.120;8.764;2022-09-30T00:32:21;100768.59;;;11.85;52.24
54920;BME280;63804;53.120;8.764;2022-09-30T00:34:46;100765.81;;;11.98;52.27
54920;BME280;63804;53.120;8.764;2022-09-30T00:37:12;100773.72;;;11.87;52.59
54920;BME280;63804;53.120;8.764;2022-09-30T00:39:39;100768.84;;;11.80;52.74
54920;BME280;63804;53.120;8.764;2022-09-30T00:42:10;100773.38;;;11.89;52.30
54920;BME280;63804;53.120;8.764;2022-09-30T00:47:24;100773.47;;;11.92;52.43
54920;BME280;63804;53.120;8.764;2022-09-30T00:49:54;100772.97;;;12.02;52.16
54920;BME280;63804;53.120;8.764;2022-09-30T00:52:21;100777.84;;;12.09;52.07
54920;BME280;63804;53.120;8.764;2022-09-30T00:54:46;100774.97;;;12.06;52.13
54920;BME280;63804;53.120;8.764;2022-09-30T00:57:12;100776.22;;;12.08;52.19
54920;BME280;63804;53.120;8.764;2022-09-30T00:59:44;100774.47;;;12.00;52.11
54920;BME280;63804;53.120;8.764;2022-09-30T01:02:11;100775.16;;;11.97;52.34
54920;BME280;63804;53.120;8.764;2022-09-30T01:04:40;100778.06;;;11.88;52.78
54920;BME280;63804;53.120;8.764;2022-09-30T01:07:09;100784.78;;;11.91;52.51
54920;BME280;63804;53.120;8.764;2022-09-30T01:09:37;100780.63;;;11.97;52.41
54920;BME280;63804;53.120;8.764;2022-09-30T01:12:08;100787.78;;;12.01;52.25
54920;BME280;63804;53.120;8.764;2022-09-30T01:14:36;100783.31;;;12.09;51.92
54920;BME280;63804;53.120;8.764;2022-09-30T01:19:42;100775.38;;;12.04;52.07
54920;BME280;63804;53.120;8.764;2022-09-30T01:22:46;100772.16;;;12.02;52.14
54920;BME280;63804;53.120;8.764;2022-09-30T01:25:52;100781.69;;;12.08;51.80
54920;BME280;63804;53.120;8.764;2022-09-30T01:31:36;100776.75;;;11.98;52.19
54920;BME280;63804;53.120;8.764;2022-09-30T01:34:15;100779.94;;;12.00;51.78
54920;BME280;63804;53.120;8.764;2022-09-30T01:39:42;100772.94;;;11.87;52.19
54920;BME280;63804;53.120;8.764;2022-09-30T01:44:59;100768.66;;;11.73;52.54
54920;BME280;63804;53.120;8.764;2022-09-30T01:47:55;100769.31;;;11.82;52.53
54920;BME280;63804;53.120;8.764;2022-09-30T01:50:28;100765.09;;;11.85;52.42
54920;BME280;63804;53.120;8.764;2022-09-30T01:53:16;100777.16;;;11.84;52.37
54920;BME280;63804;53.120;8.764;2022-09-30T01:55:49;100780.09;;;11.91;52.08
54920;BME280;63804;53.120;8.764;2022-09-30T01:58:40;100779.91;;;11.84;52.49
54920;BME280;63804;53.120;8.764;2022-09-30T02:01:16;100783.88;;;11.87;52.19
54920;BME280;63804;53.120;8.764;2022-09-30T02:03:48;100779.59;;;11.73;52.50
54920;BME280;63804;53.120;8.764;2022-09-30T02:06:20;100789.59;;;11.81;52.12
54920;BME280;63804;53.120;8.764;2022-09-30T02:09:08;100784.81;;;11.78;52.13
54920;BME280;63804;53.120;8.764;2022-09-30T02:11:36;100787.06;;;11.89;52.16
54920;BME280;63804;53.120;8.764;2022-09-30T02:14:24;100776.59;;;11.78;52.17
54920;BME280;63804;53.120;8.764;2022-09-30T02:17:00;100786.41;;;11.79;52.48
54920;BME280;63804;53.120;8.764;2022-09-30T02:19:34;100783.84;;;11.71;52.31
54920;BME280;63804;53.120;8.764;2022-09-30T02:22:17;100786.19;;;11.72;52.58
54920;BME280;63804;53.120;8.764;2022-09-30T02:24:46;100793.88;;;11.66;52.22
54920;BME280;63804;53.120;8.764;2022-09-30T02:27:20;100795.00;;;11.65;52.49
54920;BME280;63804;53.120;8.764;2022-09-30T02:29:52;100795.72;;;11.62;52.53
54920;BME280;63804;53.120;8.764;2022-09-30T02:32:29;100796.44;;;11.75;52.12
54920;BME280;63804;53.120;8.764;2022-09-30T02:35:00;100796.25;;;11.68;52.34
54920;BME280;63804;53.120;8.764;2022-09-30T02:37:31;100803.09;;;11.62;52.40
54920;BME280;63804;53.120;8.764;2022-09-30T02:40:19;100807.25;;;11.56;52.86
54920;BME280;63804;53.120;8.764;2022-09-30T02:42:46;100808.56;;;11.62;52.37
54920;BME280;63804;53.120;8.764;2022-09-30T02:45:15;100811.53;;;11.69;52.30
54920;BME280;63804;53.120;8.764;2022-09-30T02:50:47;100814.84;;;11.62;52.24
54920;BME280;63804;53.120;8.764;2022-09-30T02:53:21;100819.41;;;11.58;52.37
54920;BME280;63804;53.120;8.764;2022-09-30T02:55:57;100814.03;;;11.62;52.63
54920;BME280;63804;53.120;8.764;2022-09-30T02:58:28;100813.44;;;11.68;52.23
54920;BME280;63804;53.120;8.764;2022-09-30T03:00:55;100818.13;;;11.68;52.20
54920;BME280;63804;53.120;8.764;2022-09-30T03:03:27;100824.19;;;11.61;52.40
54920;BME280;63804;53.120;8.764;2022-09-30T03:06:01;100823.94;;;11.66;52.33
54920;BME280;63804;53.120;8.764;2022-09-30T03:08:27;100818.91;;;11.68;52.30
54920;BME280;63804;53.120;8.764;2022-09-30T03:10:52;100822.47;;;11.69;52.16
54920;BME280;63804;53.120;8.764;2022-09-30T03:19:18;100830.94;;;11.52;52.77
54920;BME280;63804;53.120;8.764;2022-09-30T03:22:12;100828.44;;;11.46;52.75
54920;BME280;63804;53.120;8.764;2022-09-30T03:28:01;100832.03;;;11.35;52.66
54920;BME280;63804;53.120;8.764;2022-09-30T03:30:31;100837.63;;;11.26;52.98
54920;BME280;63804;53.120;8.764;2022-09-30T03:33:08;100834.59;;;11.03;53.42
54920;BME280;63804;53.120;8.764;2022-09-30T03:38:23;100833.13;;;10.93;53.45
54920;BME280;63804;53.120;8.764;2022-09-30T03:41:06;100831.41;;;11.01;53.54
54920;BME280;63804;53.120;8.764;2022-09-30T03:46:46;100846.97;;;11.13;53.10
54920;BME280;63804;53.120;8.764;2022-09-30T03:49:18;100839.69;;;11.17;53.05
54920;BME280;63804;53.120;8.764;2022-09-30T03:51:46;100842.19;;;11.09;52.86
54920;BME280;63804;53.120;8.764;2022-09-30T03:54:12;100852.91;;;10.90;53.44
54920;BME280;63804;53.120;8.764;2022-09-30T03:56:39;100847.56;;;10.93;53.50
54920;BME280;63804;53.120;8.764;2022-09-30T03:59:12;100859.97;;;10.91;53.67
54920;BME280;63804;53.120;8.764;2022-09-30T04:01:41;100862.59;;;10.87;53.63
54920;BME280;63804;53.120;8.764;2022-09-30T04:04:07;100862.25;;;11.01;53.38
54920;BME280;63804;53.120;8.764;2022-09-30T04:06:32;100865.88;;;11.05;53.11
54920;BME280;63804;53.120;8.764;2022-09-30T04:08:58;100864.06;;;11.09;52.80
54920;BME280;63804;53.120;8.764;2022-09-30T04:11:24;100863.72;;;11.11;52.84
54920;BME280;63804;53.120;8.764;2022-09-30T04:13:49;100869.88;;;10.96;53.33
54920;BME280;63804;53.120;8.764;2022-09-30T04:16:14;100882.50;;;10.88;53.30
54920;BME280;63804;53.120;8.764;2022-09-30T04:18:40;100878.41;;;10.94;53.36
54920;BME280;63804;53.120;8.764;2022-09-30T04:21:12;100876.69;;;11.02;53.03
54920;BME280;63804;53.120;8.764;2022-09-30T04:23:39;100875.78;;;10.98;52.87
54920;BME280;63804;53.120;8.764;2022-09-30T04:26:07;100888.09;;;11.04;52.54
54920;BME280;63804;53.120;8.764;2022-09-30T04:28:34;100888.66;;;10.97;52.75
54920;BME280;63804;53.120;8.764;2022-09-30T04:31:01;100885.69;;;11.02;52.62
54920;BME280;63804;53.120;8.764;2022-09-30T04:33:27;100886.59;;;10.94;52.88
54920;BME280;63804;53.120;8.764;2022-09-30T04:35:59;100886.84;;;10.89;53.09
54920;BME280;63804;53.120;8.764;2022-09-30T04:38:25;100882.38;;;10.97;52.75
54920;BME280;63804;53.120;8.764;2022-09-30T04:40:52;100883.97;;;10.85;52.81
54920;BME280;63804;53.120;8.764;2022-09-30T04:43:20;100901.16;;;10.86;53.05
54920;BME280;63804;53.120;8.764;2022-09-30T04:45:48;100917.47;;;10.73;53.31
54920;BME280;63804;53.120;8.764;2022-09-30T04:48:14;100920.28;;;10.86;52.83
54920;BME280;63804;53.120;8.764;2022-09-30T04:50:41;100919.34;;;10.82;52.95
54920;BME280;63804;53.120;8.764;2022-09-30T04:53:08;100928.25;;;10.91;52.83
54920;BME280;63804;53.120;8.764;2022-09-30T04:55:35;100924.59;;;10.87;52.68
54920;BME280;63804;53.120;8.764;2022-09-30T04:58:01;100924.59;;;10.87;52.76
54920;BME280;63804;53.120;8.764;2022-09-30T05:00:27;100923.75;;;10.74;52.92
54920;BME280;63804;53.120;8.764;2022-09-30T05:02:52;100924.91;;;10.85;53.00
54920;BME280;63804;53.120;8.764;2022-09-30T05:05:18;100925.63;;;10.95;52.62
54920;BME280;63804;53.120;8.764;2022-09-30T05:07:44;100930.28;;;10.94;52.70
54920;BME280;63804;53.120;8.764;2022-09-30T05:10:10;100928.91;;;10.88;53.08
54920;BME280;63804;53.120;8.764;2022-09-30T05:12:37;100923.47;;;10.76;53.17
54920;BME280;63804;53.120;8.764;2022-09-30T05:15:04;100926.59;;;10.65;53.42
54920;BME280;63804;53.120;8.764;2022-09-30T05:17:30;100928.25;;;10.79;53.18
54920;BME280;63804;53.120;8.764;2022-09-30T05:19:56;100933.09;;;10.85;53.14
54920;BME280;63804;53.120;8.764;2022-09-30T05:22:22;100938.72;;;10.89;52.81
54920;BME280;63804;53.120;8.764;2022-09-30T05:24:51;100936.44;;;11.03;52.59
54920;BME280;63804;53.120;8.764;2022-09-30T05:27:18;100939.16;;;11.03;52.51
54920;BME280;63804;53.120;8.764;2022-09-30T05:29:44;100943.28;;;10.97;52.88
54920;BME280;63804;53.120;8.764;2022-09-30T05:32:09;100942.72;;;11.04;52.57
54920;BME280;63804;53.120;8.764;2022-09-30T05:34:35;100938.94;;;11.08;52.46
54920;BME280;63804;53.120;8.764;2022-09-30T05:37:02;100948.97;;;11.04;52.68
54920;BME280;63804;53.120;8.764;2022-09-30T05:39:28;100942.81;;;11.07;52.64
54920;BME280;63804;53.120;8.764;2022-09-30T05:41:58;100941.31;;;11.10;52.42
54920;BME280;63804;53.120;8.764;2022-09-30T05:44:24;100941.31;;;11.10;52.77
54920;BME280;63804;53.120;8.764;2022-09-30T05:46:50;100946.69;;;11.06;52.89
54920;BME280;63804;53.120;8.764;2022-09-30T05:49:15;100942.59;;;11.13;52.66
54920;BME280;63804;53.120;8.764;2022-09-30T05:51:41;100952.03;;;11.15;52.57
54920;BME280;63804;53.120;8.764;2022-09-30T05:54:06;100947.81;;;11.18;52.14
54920;BME280;63804;53.120;8.764;2022-09-30T05:56:32;100943.59;;;11.20;52.42
54920;BME280;63804;53.120;8.764;2022-09-30T05:58:59;100952.72;;;11.24;52.32
54920;BME280;63804;53.120;8.764;2022-09-30T06:01:25;100950.00;;;11.24;52.20
54920;BME280;63804;53.120;8.764;2022-09-30T06:03:50;100954.28;;;11.25;52.16
54920;BME280;63804;53.120;8.764;2022-09-30T06:06:16;100954.75;;;11.40;51.93
54920;BME280;63804;53.120;8.764;2022-09-30T06:08:44;100950.41;;;11.39;51.93
54920;BME280;63804;53.120;8.764;2022-09-30T06:11:12;100955.31;;;11.33;52.21
54920;BME280;63804;53.120;8.764;2022-09-30T06:13:39;100955.31;;;11.33;51.93
54920;BME280;63804;53.120;8.764;2022-09-30T06:16:06;100952.38;;;11.26;52.00
54920;BME280;63804;53.120;8.764;2022-09-30T06:18:32;100959.56;;;11.30;52.02
54920;BME280;63804;53.120;8.764;2022-09-30T06:20:59;100956.69;;;11.27;52.02
54920;BME280;63804;53.120;8.764;2022-09-30T06:23:25;100966.50;;;11.28;52.14
54920;BME280;63804;53.120;8.764;2022-09-30T06:25:52;100976.16;;;11.25;52.31
54920;BME280;63804;53.120;8.764;2022-09-30T06:28:19;100983.78;;;11.32;52.17
54920;BME280;63804;53.120;8.764;2022-09-30T06:30:45;100984.00;;;11.27;51.96
54920;BME280;63804;53.120;8.764;2022-09-30T06:33:12;100979.25;;;11.24;52.12
54920;BME280;63804;53.120;8.764;2022-09-30T06:35:38;100979.47;;;11.31;51.95
54920;BME280;63804;53.120;8.764;2022-09-30T06:38:07;100990.41;;;11.31;51.87
54920;BME280;63804;53.120;8.764;2022-09-30T06:40:32;100988.91;;;11.34;51.94
54920;BME280;63804;53.120;8.764;2022-09-30T06:42:58;100979.00;;;11.41;51.92
54920;BME280;63804;53.120;8.764;2022-09-30T06:45:25;100986.75;;;11.39;51.96
54920;BME280;63804;53.120;8.764;2022-09-30T06:47:56;100983.78;;;11.44;51.59
54920;BME280;63804;53.120;8.764;2022-09-30T06:50:22;100981.16;;;11.48;51.75
54920;BME280;63804;53.120;8.764;2022-09-30T06:52:47;100985.84;;;11.35;51.77
54920;BME280;63804;53.120;8.764;2022-09-30T06:55:13;100991.78;;;11.37;51.83
54920;BME280;63804;53.120;8.764;2022-09-30T06:57:41;100995.97;;;11.35;51.98
54920;BME280;63804;53.120;8.764;2022-09-30T07:00:08;100994.97;;;11.39;51.98
54920;BME280;63804;53.120;8.764;2022-09-30T07:02:34;100991.88;;;11.53;51.39
54920;BME280;63804;53.120;8.764;2022-09-30T07:05:00;100990.16;;;11.61;51.50
54920;BME280;63804;53.120;8.764;2022-09-30T07:07:28;100991.19;;;11.56;51.62
54920;BME280;63804;53.120;8.764;2022-09-30T07:09:54;100987.19;;;11.54;51.83
54920;BME280;63804;53.120;8.764;2022-09-30T07:12:19;100995.88;;;11.56;51.55
54920;BME280;63804;53.120;8.764;2022-09-30T07:14:45;100993.56;;;11.58;51.67
54920;BME280;63804;53.120;8.764;2022-09-30T07:17:11;101004.50;;;11.58;51.71
54920;BME280;63804;53.120;8.764;2022-09-30T07:19:36;101004.50;;;11.58;51.80
54920;BME280;63804;53.120;8.764;2022-09-30T07:22:02;101002.25;;;11.47;51.77
54920;BME280;63804;53.120;8.764;2022-09-30T07:24:46;101006.81;;;11.56;51.52
54920;BME280;63804;53.120;8.764;2022-09-30T07:27:11;101007.47;;;11.65;51.21
54920;BME280;63804;53.120;8.764;2022-09-30T07:29:39;101002.78;;;11.78;51.14
54920;BME280;63804;53.120;8.764;2022-09-30T07:32:06;101012.81;;;11.86;51.06
54920;BME280;63804;53.120;8.764;2022-09-30T07:34:32;101013.28;;;11.88;51.37
54920;BME280;63804;53.120;8.764;2022-09-30T07:36:57;101009.84;;;11.91;51.14
54920;BME280;63804;53.120;8.764;2022-09-30T07:39:23;101011.22;;;11.97;50.91
54920;BME280;63804;53.120;8.764;2022-09-30T07:41:49;101006.19;;;11.99;50.86
54920;BME280;63804;53.120;8.764;2022-09-30T07:44:14;101017.38;;;11.94;51.33
54920;BME280;63804;53.120;8.764;2022-09-30T07:46:40;101014.28;;;11.96;51.17
54920;BME280;63804;53.120;8.764;2022-09-30T07:49:11;101014.75;;;11.98;51.16
54920;BME280;63804;53.120;8.764;2022-09-30T07:51:39;101019.81;;;12.12;50.98
54920;BME280;63804;53.120;8.764;2022-09-30T07:54:07;101022.66;;;12.15;50.72
54920;BME280;63804;53.120;8.764;2022-09-30T07:56:34;101024.94;;;12.13;50.97
54920;BME280;63804;53.120;8.764;2022-09-30T07:59:03;101022.47;;;12.08;51.23
54920;BME280;63804;53.120;8.764;2022-09-30T08:01:29;101021.19;;;12.18;50.85
54920;BME280;63804;53.120;8.764;2022-09-30T08:03:59;101022.53;;;12.24;51.01
54920;BME280;63804;53.120;8.764;2022-09-30T08:06:26;101016.47;;;12.31;50.66
54920;BME280;63804;53.120;8.764;2022-09-30T08:08:54;101011.09;;;12.34;50.70
54920;BME280;63804;53.120;8.764;2022-09-30T08:11:20;101010.63;;;12.32;50.70
54920;BME280;63804;53.120;8.764;2022-09-30T08:13:54;101009.16;;;12.35;50.92
54920;BME280;63804;53.120;8.764;2022-09-30T08:16:20;101016.66;;;12.38;51.04
54920;BME280;63804;53.120;8.764;2022-09-30T08:18:46;101007.66;;;12.37;50.61
54920;BME280;63804;53.120;8.764;2022-09-30T08:21:11;101012.72;;;12.51;50.51
54920;BME280;63804;53.120;8.764;2022-09-30T08:23:37;101022.47;;;12.65;50.32
54920;BME280;63804;53.120;8.764;2022-09-30T08:26:08;101017.19;;;12.72;50.12
54920;BME280;63804;53.120;8.764;2022-09-30T08:28:35;101025.06;;;12.73;50.17
54920;BME280;63804;53.120;8.764;2022-09-30T08:31:09;101027.44;;;12.75;50.12
54920;BME280;63804;53.120;8.764;2022-09-30T08:33:36;101024.09;;;12.82;50.11
54920;BME280;63804;53.120;8.764;2022-09-30T08:36:14;101034.25;;;12.81;50.08
54920;BME280;63804;53.120;8.764;2022-09-30T08:38:40;101026.25;;;12.88;49.85
54920;BME280;63804;53.120;8.764;2022-09-30T08:46:59;101027.50;;;13.07;49.44
54920;BME280;63804;53.120;8.764;2022-09-30T08:52:18;101024.50;;;13.12;49.25
54920;BME280;63804;53.120;8.764;2022-09-30T08:54:47;101036.53;;;13.23;49.27
54920;BME280;63804;53.120;8.764;2022-09-30T08:57:14;101031.66;;;13.32;48.96
54920;BME280;63804;53.120;8.764;2022-09-30T08:59:50;101034.16;;;13.38;49.00
54920;BME280;63804;53.120;8.764;2022-09-30T09:02:26;101038.47;;;13.39;48.95
54920;BME280;63804;53.120;8.764;2022-09-30T09:04:59;101038.63;;;13.46;48.79
54920;BME280;63804;53.120;8.764;2022-09-30T09:07:42;101041.28;;;13.42;48.71
54920;BME280;63804;53.120;8.764;2022-09-30T09:10:33;101042.53;;;13.45;48.85
54920;BME280;63804;53.120;8.764;2022-09-30T09:18:50;101049.78;;;13.53;48.50
54920;BME280;63804;53.120;8.764;2022-09-30T09:24:21;101048.81;;;13.61;48.53
54920;BME280;63804;53.120;8.764;2022-09-30T09:26:48;101041.00;;;13.63;48.61
54920;BME280;63804;53.120;8.764;2022-09-30T09:29:38;101047.13;;;13.57;49.08
54920;BME280;63804;53.120;8.764;2022-09-30T09:32:15;101048.69;;;13.74;48.61
54920;BME280;63804;53.120;8.764;2022-09-30T09:34:42;101053.91;;;13.79;48.36
54920;BME280;63804;53.120;8.764;2022-09-30T09:37:14;101052.94;;;13.87;48.31
54920;BME280;63804;53.120;8.764;2022-09-30T09:39:45;101053.00;;;13.91;48.35
54920;BME280;63804;53.120;8.764;2022-09-30T09:42:41;101042.13;;;13.94;48.13
54920;BME280;63804;53.120;8.764;2022-09-30T09:47:51;101050.69;;;13.93;48.21
54920;BME280;63804;53.120;8.764;2022-09-30T09:50:26;101044.56;;;13.99;48.01
54920;BME280;63804;53.120;8.764;2022-09-30T09:53:14;101054.56;;;14.07;48.06
54920;BME280;63804;53.120;8.764;2022-09-30T09:55:44;101054.19;;;14.09;47.88
54920;BME280;63804;53.120;8.764;2022-09-30T09:58:13;101054.28;;;14.13;47.84
54920;BME280;63804;53.120;8.764;2022-09-30T10:00:40;101041.84;;;14.19;47.67
54920;BME280;63804;53.120;8.764;2022-09-30T10:03:14;101044.88;;;14.14;47.87
54920;BME280;63804;53.120;8.764;2022-09-30T10:05:45;101038.69;;;14.17;47.63
54920;BME280;63804;53.120;8.764;2022-09-30T10:08:21;101043.59;;;14.27;47.39
54920;BME280;63804;53.120;8.764;2022-09-30T10:10:53;101044.19;;;14.17;47.17
54920;BME280;63804;53.120;8.764;2022-09-30T10:13:25;101048.53;;;14.18;47.36
54920;BME280;63804;53.120;8.764;2022-09-30T10:15:56;101047.59;;;14.30;46.96
54920;BME280;63804;53.120;8.764;2022-09-30T10:18:42;101044.03;;;14.29;46.72
54920;BME280;63804;53.120;8.764;2022-09-30T10:21:22;101050.44;;;14.17;46.67
54920;BME280;63804;53.120;8.764;2022-09-30T10:23:48;101048.38;;;14.30;46.53
54920;BME280;63804;53.120;8.764;2022-09-30T10:31:37;101050.66;;;14.67;45.85
54920;BME280;63804;53.120;8.764;2022-09-30T10:34:23;101048.63;;;14.64;46.20
54920;BME280;63804;53.120;8.764;2022-09-30T10:36:49;101043.88;;;14.61;45.76
54920;BME280;63804;53.120;8.764;2022-09-30T10:39:22;101051.31;;;14.60;44.98
54920;BME280;63804;53.120;8.764;2022-09-30T10:41:50;101053.28;;;14.60;45.22
54920;BME280;63804;53.120;8.764;2022-09-30T10:44:22;101056.75;;;14.57;45.09
54920;BME280;63804;53.120;8.764;2022-09-30T10:46:50;101051.91;;;14.50;45.19
54920;BME280;63804;53.120;8.764;2022-09-30T10:49:40;101047.94;;;14.48;44.51
54920;BME280;63804;53.120;8.764;2022-09-30T10:52:18;101052.25;;;14.68;45.00
54920;BME280;63804;53.120;8.764;2022-09-30T10:54:56;101043.31;;;14.71;44.97
54920;BME280;63804;53.120;8.764;2022-09-30T10:59:49;101054.44;;;14.59;45.07
54920;BME280;63804;53.120;8.764;2022-09-30T11:02:28;101047.78;;;14.60;45.22
54920;BME280;63804;53.120;8.764;2022-09-30T11:05:13;101040.56;;;14.71;44.48
54920;BME280;63804;53.120;8.764;2022-09-30T11:07:45;101044.09;;;14.72;44.45
54920;BME280;63804;53.120;8.764;2022-09-30T11:12:59;101036.34;;;14.77;44.86
54920;BME280;63804;53.120;8.764;2022-09-30T11:15:41;101036.63;;;14.92;44.45
54920;BME280;63804;53.120;8.764;2022-09-30T11:20:39;101037.53;;;14.99;44.16
54920;BME280;63804;53.120;8.764;2022-09-30T11:23:23;101030.94;;;15.04;42.91
54920;BME280;63804;53.120;8.764;2022-09-30T11:31:25;101032.72;;;15.16;43.51
54920;BME280;63804;53.120;8.764;2022-09-30T11:34:04;101026.78;;;15.37;43.28
54920;BME280;63804;53.120;8.764;2022-09-30T11:39:21;101022.38;;;15.59;42.73
54920;BME280;63804;53.120;8.764;2022-09-30T11:44:35;101016.75;;;15.48;42.89
54920;BME280;63804;53.120;8.764;2022-09-30T11:47:36;101012.59;;;15.35;42.47
54920;BME280;63804;53.120;8.764;2022-09-30T11:53:21;101022.38;;;15.59;41.81
54920;BME280;63804;53.120;8.764;2022-09-30T11:58:50;101023.41;;;15.47;42.85
54920;BME280;63804;53.120;8.764;2022-09-30T12:01:36;101027.59;;;15.64;42.12
54920;BME280;63804;53.120;8.764;2022-09-30T12:04:10;101024.66;;;15.77;42.01
54920;BME280;63804;53.120;8.764;2022-09-30T12:06:41;101028.28;;;15.84;41.64
54920;BME280;63804;53.120;8.764;2022-09-30T12:09:15;101029.84;;;15.82;41.10
54920;BME280;63804;53.120;8.764;2022-09-30T12:11:48;101027.22;;;15.92;40.55
54920;BME280;63804;53.120;8.764;2022-09-30T12:16:56;101031.56;;;15.94;39.70
54920;BME280;63804;53.120;8.764;2022-09-30T12:19:48;101018.44;;;15.83;39.67
54920;BME280;63804;53.120;8.764;2022-09-30T12:22:16;101014.56;;;15.88;39.82
54920;BME280;63804;53.120;8.764;2022-09-30T12:24:44;101005.53;;;15.87;39.92
54920;BME280;63804;53.120;8.764;2022-09-30T12:27:17;101021.28;;;15.90;39.84
54920;BME280;63804;53.120;8.764;2022-09-30T12:30:00;101016.94;;;15.89;39.34
54920;BME280;63804;53.120;8.764;2022-09-30T12:38:35;101010.88;;;15.77;40.13
54920;BME280;63804;53.120;8.764;2022-09-30T12:49:35;100999.06;;;16.06;40.13
54920;BME280;63804;53.120;8.764;2022-09-30T12:52:05;100995.38;;;16.25;39.34
54920;BME280;63804;53.120;8.764;2022-09-30T12:54:35;100998.94;;;16.29;39.09
54920;BME280;63804;53.120;8.764;2022-09-30T12:57:04;100991.63;;;16.07;39.38
54920;BME280;63804;53.120;8.764;2022-09-30T12:59:42;100991.50;;;16.00;39.60
54920;BME280;63804;53.120;8.764;2022-09-30T13:02:30;100983.31;;;16.03;38.86
54920;BME280;63804;53.120;8.764;2022-09-30T13:05:51;100980.69;;;16.14;38.66
54920;BME280;63804;53.120;8.764;2022-09-30T13:08:21;100990.22;;;16.20;39.38
54920;BME280;63804;53.120;8.764;2022-09-30T13:10:58;100988.69;;;16.26;38.31
54920;BME280;63804;53.120;8.764;2022-09-30T13:13:29;100993.19;;;16.08;38.64
54920;BME280;63804;53.120;8.764;2022-09-30T13:16:02;100985.09;;;15.88;39.11
54920;BME280;63804;53.120;8.764;2022-09-30T13:23:54;100985.44;;;16.17;37.68
54920;BME280;63804;53.120;8.764;2022-09-30T13:28:54;100976.56;;;15.97;38.98
54920;BME280;63804;53.120;8.764;2022-09-30T13:41:48;100960.69;;;16.21;38.62
54920;BME280;63804;53.120;8.764;2022-09-30T13:44:24;100969.56;;;16.41;38.57
54920;BME280;63804;53.120;8.764;2022-09-30T13:46:59;100966.16;;;16.51;38.35
54920;BME280;63804;53.120;8.764;2022-09-30T13:49:48;100964.06;;;16.41;37.44
54920;BME280;63804;53.120;8.764;2022-09-30T13:52:32;100967.25;;;16.09;38.28
54920;BME280;63804;53.120;8.764;2022-09-30T13:55:05;100962.81;;;16.01;39.01
54920;BME280;63804;53.120;8.764;2022-09-30T13:57:56;100949.81;;;15.98;38.25
54920;BME280;63804;53.120;8.764;2022-09-30T14:00:38;100951.44;;;16.02;39.11
54920;BME280;63804;53.120;8.764;2022-09-30T14:04:10;100955.56;;;16.19;38.04
54920;BME280;63804;53.120;8.764;2022-09-30T14:06:16;100951.44;;;16.40;38.43
54920;BME280;63804;53.120;8.764;2022-09-30T14:09:16;100948.28;;;16.38;37.66
54920;BME280;63804;53.120;8.764;2022-09-30T14:22:14;100946.97;;;16.24;38.19
54920;BME280;63804;53.120;8.764;2022-09-30T14:24:40;100948.69;;;16.40;37.99
54920;BME280;63804;53.120;8.764;2022-09-30T14:27:48;100951.03;;;16.38;37.69
54920;BME280;63804;53.120;8.764;2022-09-30T14:30:22;100935.13;;;16.20;38.23
54920;BME280;63804;53.120;8.764;2022-09-30T14:32:55;100947.69;;;16.18;38.42
54920;BME280;63804;53.120;8.764;2022-09-30T14:35:25;100939.56;;;16.28;38.27
54920;BME280;63804;53.120;8.764;2022-09-30T14:40:23;100935.25;;;16.35;37.56
54920;BME280;63804;53.120;8.764;2022-09-30T14:42:50;100943.59;;;16.04;38.45
54920;BME280;63804;53.120;8.764;2022-09-30T14:45:20;100941.22;;;16.03;38.22
54920;BME280;63804;53.120;8.764;2022-09-30T14:47:48;100934.47;;;15.97;38.41
54920;BME280;63804;53.120;8.764;2022-09-30T14:50:20;100935.72;;;16.03;38.04
54920;BME280;63804;53.120;8.764;2022-09-30T14:52:48;100930.38;;;16.17;37.88
54920;BME280;63804;53.120;8.764;2022-09-30T14:55:25;100930.41;;;16.21;38.02
54920;BME280;63804;53.120;8.764;2022-09-30T15:03:34;100920.31;;;16.32;37.30
54920;BME280;63804;53.120;8.764;2022-09-30T15:06:00;100934.50;;;16.38;37.37
54920;BME280;63804;53.120;8.764;2022-09-30T15:08:26;100921.94;;;16.37;37.29
54920;BME280;63804;53.120;8.764;2022-09-30T15:10:53;100927.28;;;16.22;37.31
54920;BME280;63804;53.120;8.764;2022-09-30T15:13:22;100925.28;;;16.19;37.46
54920;BME280;63804;53.120;8.764;2022-09-30T15:15:48;100926.59;;;16.33;37.21
54920;BME280;63804;53.120;8.764;2022-09-30T15:18:31;100918.69;;;16.27;36.68
54920;BME280;63804;53.120;8.764;2022-09-30T15:21:07;100917.97;;;16.38;37.35
54920;BME280;63804;53.120;8.764;2022-09-30T15:23:35;100918.03;;;16.45;36.73
54920;BME280;63804;53.120;8.764;2022-09-30T15:26:02;100919.47;;;16.28;36.90
54920;BME280;63804;53.120;8.764;2022-09-30T15:28:28;100921.16;;;16.40;36.83
54920;BME280;63804;53.120;8.764;2022-09-30T15:30:56;100920.06;;;16.48;36.73